Time;durP1;ratioP1;P1;durP2;ratioP2;P2;SDS_P1;SDS_P2;PMS_P1;PMS_P2;Temp;Humidity;BMP_temperature;BMP_pressure;BME280_temperature;BME280_humidity;BME280_pressure;Samples;Min_cycle;Max_cycle;Signal;HPM_P1;HPM_P2
2021/12/21 00:01:25;;;;;;;4.33;2.20;;;;;;;;;;5031148;28;20543;-70
2021/12/21 00:03:53;;;;;;;5.97;2.70;;;;;;;;;;5030943;28;20503;-69
2021/12/21 00:06:20;;;;;;;4.77;2.40;;;;;;;;;;5031040;28;21267;-69
2021/12/21 00:08:47;;;;;;;4.70;2.47;;;;;;;;;;5030748;28;20937;-70
2021/12/21 00:11:14;;;;;;;5.90;3.43;;;;;;;;;;5030937;28;20496;-69
2021/12/21 00:19:24;;;;;;;5.60;3.30;;;;;;;;;;5030616;28;20424;-70
2021/12/21 00:21:57;;;;;;;4.10;2.20;;;;;;;;;;5030583;28;20478;-70
2021/12/21 00:24:31;;;;;;;4.97;2.97;;;;;;;;;;5030726;28;20462;-71
2021/12/21 00:27:00;;;;;;;9.10;4.20;;;;;;;;;;5030424;28;20465;-69
2021/12/21 00:29:27;;;;;;;5.43;2.97;;;;;;;;;;5030165;28;20940;-70
2021/12/21 00:31:56;;;;;;;6.60;3.03;;;;;;;;;;5030380;28;20998;-70
2021/12/21 00:34:27;;;;;;;7.83;3.20;;;;;;;;;;5030156;28;20466;-69
2021/12/21 00:36:54;;;;;;;5.40;3.40;;;;;;;;;;5030678;28;20450;-69
2021/12/21 00:39:22;;;;;;;4.70;3.43;;;;;;;;;;5030782;28;20460;-70
2021/12/21 00:41:49;;;;;;;7.53;3.60;;;;;;;;;;5031041;28;20474;-70
2021/12/21 00:44:16;;;;;;;5.77;3.63;;;;;;;;;;5030977;28;20494;-70
2021/12/21 00:46:44;;;;;;;4.87;2.90;;;;;;;;;;5030490;28;20943;-70
2021/12/21 00:49:16;;;;;;;5.43;2.73;;;;;;;;;;5030521;28;20485;-69
2021/12/21 00:51:45;;;;;;;4.90;2.90;;;;;;;;;;5030428;28;20525;-68
2021/12/21 00:54:13;;;;;;;5.40;2.97;;;;;;;;;;5029984;28;20508;-70
2021/12/21 00:56:41;;;;;;;5.90;3.00;;;;;;;;;;5030530;28;20451;-69
2021/12/21 00:59:08;;;;;;;5.73;3.60;;;;;;;;;;5029781;28;20446;-69
2021/12/21 01:01:41;;;;;;;7.27;3.23;;;;;;;;;;5030176;28;20475;-69
2021/12/21 01:04:16;;;;;;;6.13;3.50;;;;;;;;;;5030137;28;20851;-69
2021/12/21 01:06:58;;;;;;;6.73;3.03;;;;;;;;;;5028682;28;20501;-69
2021/12/21 01:09:43;;;;;;;7.63;3.83;;;;;;;;;;5030318;28;20451;-70
2021/12/21 01:12:16;;;;;;;8.03;3.40;;;;;;;;;;5030163;28;20478;-69
2021/12/21 01:15:03;;;;;;;6.03;3.67;;;;;;;;;;5030075;28;20543;-69
2021/12/21 01:17:35;;;;;;;4.93;3.00;;;;;;;;;;5029984;28;20467;-69
2021/12/21 01:20:09;;;;;;;5.63;3.57;;;;;;;;;;5030028;28;20456;-69
2021/12/21 01:22:58;;;;;;;4.90;3.33;;;;;;;;;;5030064;28;20569;-69
2021/12/21 01:25:37;;;;;;;6.10;3.10;;;;;;;;;;5029766;28;20494;-69
2021/12/21 01:28:13;;;;;;;5.43;3.33;;;;;;;;;;5013417;28;20496;-70
2021/12/21 01:30:49;;;;;;;4.80;2.80;;;;;;;;;;5029752;28;20478;-70
2021/12/21 01:33:30;;;;;;;5.33;2.93;;;;;;;;;;5030041;28;20457;-69
2021/12/21 01:36:01;;;;;;;6.27;3.60;;;;;;;;;;5030067;28;20462;-70
2021/12/21 01:38:36;;;;;;;5.10;3.10;;;;;;;;;;5029796;28;20529;-69
2021/12/21 01:41:10;;;;;;;4.90;3.17;;;;;;;;;;5029586;28;20484;-69
2021/12/21 01:43:42;;;;;;;5.20;3.00;;;;;;;;;;5029756;28;20489;-69
2021/12/21 01:51:39;;;;;;;4.00;2.63;;;;;;;;;;5029744;28;20559;-70
2021/12/21 01:54:08;;;;;;;6.50;3.60;;;;;;;;;;5029605;28;20466;-70
2021/12/21 01:56:35;;;;;;;6.90;3.17;;;;;;;;;;5029600;28;20522;-70
2021/12/21 01:59:03;;;;;;;4.80;3.20;;;;;;;;;;5029431;28;20851;-70
2021/12/21 02:01:30;;;;;;;6.77;3.67;;;;;;;;;;5029502;28;20471;-70
2021/12/21 02:03:58;;;;;;;4.00;2.60;;;;;;;;;;5029496;28;20490;-70
2021/12/21 02:06:27;;;;;;;6.80;4.07;;;;;;;;;;5029636;28;20492;-70
2021/12/21 02:08:55;;;;;;;6.83;3.57;;;;;;;;;;5029549;28;20450;-70
2021/12/21 02:11:24;;;;;;;5.00;2.80;;;;;;;;;;5031316;28;20477;-70
2021/12/21 02:13:52;;;;;;;5.10;3.10;;;;;;;;;;5033377;28;20811;-70
2021/12/21 02:16:25;;;;;;;6.57;2.87;;;;;;;;;;5033370;28;20507;-70
2021/12/21 02:18:58;;;;;;;5.87;2.80;;;;;;;;;;5033299;28;20457;-70
2021/12/21 02:21:32;;;;;;;6.10;3.53;;;;;;;;;;5033182;28;20480;-69
2021/12/21 02:24:04;;;;;;;6.53;3.13;;;;;;;;;;5032895;28;20522;-71
2021/12/21 02:26:43;;;;;;;4.77;2.77;;;;;;;;;;5032849;28;20488;-70
2021/12/21 02:29:25;;;;;;;6.30;3.80;;;;;;;;;;5032725;28;20971;-70
2021/12/21 02:31:56;;;;;;;6.70;2.87;;;;;;;;;;5033025;28;20540;-70
2021/12/21 02:34:25;;;;;;;5.73;3.10;;;;;;;;;;5032702;28;20450;-70
2021/12/21 02:36:54;;;;;;;6.67;2.90;;;;;;;;;;5031401;28;20510;-71
2021/12/21 02:39:22;;;;;;;5.33;2.90;;;;;;;;;;5032854;28;21006;-69
2021/12/21 02:41:50;;;;;;;7.47;2.83;;;;;;;;;;5032754;28;20471;-69
2021/12/21 02:44:17;;;;;;;4.17;2.23;;;;;;;;;;5032847;28;20488;-69
2021/12/21 02:46:45;;;;;;;4.10;2.30;;;;;;;;;;5032335;28;20456;-70
2021/12/21 02:49:13;;;;;;;5.10;2.67;;;;;;;;;;5032493;28;20455;-70
2021/12/21 02:51:42;;;;;;;4.33;2.33;;;;;;;;;;5032027;28;20986;-70
2021/12/21 02:54:11;;;;;;;4.00;2.10;;;;;;;;;;5032824;28;20444;-70
2021/12/21 02:56:39;;;;;;;6.40;3.03;;;;;;;;;;5032329;28;20546;-70
2021/12/21 02:59:06;;;;;;;6.33;2.53;;;;;;;;;;5032499;28;20965;-70
2021/12/21 03:01:33;;;;;;;6.00;2.60;;;;;;;;;;5032162;28;20521;-70
2021/12/21 03:04:01;;;;;;;6.40;2.93;;;;;;;;;;5032338;28;20494;-70
2021/12/21 03:09:32;;;;;;;4.63;2.23;;;;;;;;;;5030313;28;20466;-70
2021/12/21 03:12:10;;;;;;;6.43;2.83;;;;;;;;;;5032235;28;20828;-70
2021/12/21 03:14:37;;;;;;;4.20;2.40;;;;;;;;;;5032060;28;20462;-69
2021/12/21 03:17:04;;;;;;;4.80;2.13;;;;;;;;;;5032219;28;20471;-69
2021/12/21 03:19:32;;;;;;;4.70;2.63;;;;;;;;;;5032088;28;20461;-69
2021/12/21 03:21:59;;;;;;;6.03;2.50;;;;;;;;;;5031235;28;20521;-69
2021/12/21 03:24:28;;;;;;;3.80;2.13;;;;;;;;;;5032173;28;20492;-69
2021/12/21 03:26:55;;;;;;;3.83;2.67;;;;;;;;;;5032071;28;20456;-70
2021/12/21 03:29:23;;;;;;;6.37;3.00;;;;;;;;;;5031649;28;20498;-70
2021/12/21 03:31:50;;;;;;;4.67;2.40;;;;;;;;;;5031823;28;20471;-69
2021/12/21 03:34:18;;;;;;;7.03;3.17;;;;;;;;;;5031921;28;20454;-69
2021/12/21 03:36:45;;;;;;;4.53;2.33;;;;;;;;;;5031847;28;20453;-70
2021/12/21 03:39:17;;;;;;;5.90;3.20;;;;;;;;;;5031488;28;20468;-70
2021/12/21 03:41:48;;;;;;;4.90;2.40;;;;;;;;;;5031478;28;20480;-70
2021/12/21 03:44:16;;;;;;;5.63;2.83;;;;;;;;;;5031702;28;20851;-70
2021/12/21 03:46:47;;;;;;;5.00;2.97;;;;;;;;;;5031759;28;20810;-70
2021/12/21 03:49:50;;;;;;;5.00;2.90;;;;;;;;;;5031245;28;20545;-69
2021/12/21 03:52:10;;;;;;;3.60;2.17;;;;;;;;;;5031238;28;20805;-70
2021/12/21 03:54:38;;;;;;;4.97;2.90;;;;;;;;;;5031436;28;20455;-69
2021/12/21 03:57:07;;;;;;;4.20;2.10;;;;;;;;;;5031374;28;20503;-69
2021/12/21 03:59:34;;;;;;;4.87;2.93;;;;;;;;;;5031440;28;20510;-69
2021/12/21 04:02:02;;;;;;;4.97;2.33;;;;;;;;;;5031025;28;20483;-69
2021/12/21 04:04:29;;;;;;;3.93;2.20;;;;;;;;;;5031182;28;20550;-70
2021/12/21 04:06:57;;;;;;;5.73;2.90;;;;;;;;;;5030885;28;20511;-70
2021/12/21 04:09:24;;;;;;;3.90;2.27;;;;;;;;;;5031268;28;20998;-70
2021/12/21 04:11:52;;;;;;;6.50;2.60;;;;;;;;;;5031103;28;20501;-70
2021/12/21 04:14:20;;;;;;;6.77;2.47;;;;;;;;;;5030893;28;20488;-69
2021/12/21 04:16:49;;;;;;;4.70;2.53;;;;;;;;;;5030947;28;20979;-70
2021/12/21 04:19:18;;;;;;;4.00;2.20;;;;;;;;;;5031192;28;20457;-70
2021/12/21 04:21:45;;;;;;;5.07;2.80;;;;;;;;;;5030900;28;20477;-69
2021/12/21 04:24:13;;;;;;;6.90;3.33;;;;;;;;;;5030776;28;20486;-69
2021/12/21 04:26:41;;;;;;;5.67;3.03;;;;;;;;;;5030937;28;20470;-70
2021/12/21 04:29:08;;;;;;;3.40;2.00;;;;;;;;;;5030377;28;20497;-70
2021/12/21 04:31:37;;;;;;;4.20;2.10;;;;;;;;;;5030546;28;21030;-69
2021/12/21 04:34:04;;;;;;;4.30;2.27;;;;;;;;;;5029741;28;20444;-69
2021/12/21 04:36:32;;;;;;;4.00;1.80;;;;;;;;;;5030703;28;20452;-69
2021/12/21 04:39:02;;;;;;;4.57;2.60;;;;;;;;;;5030772;28;20455;-70
2021/12/21 04:41:30;;;;;;;4.50;2.70;;;;;;;;;;5030284;28;20476;-70
2021/12/21 04:43:58;;;;;;;4.43;2.50;;;;;;;;;;5030450;28;20834;-70
2021/12/21 04:46:26;;;;;;;5.07;2.47;;;;;;;;;;5030537;28;20859;-70
2021/12/21 04:48:55;;;;;;;5.10;2.20;;;;;;;;;;5030468;28;20452;-70
2021/12/21 04:51:23;;;;;;;5.17;2.80;;;;;;;;;;5030296;28;20472;-72
2021/12/21 04:53:51;;;;;;;3.30;1.70;;;;;;;;;;5030367;28;20863;-70
2021/12/21 04:56:18;;;;;;;4.80;2.50;;;;;;;;;;5030309;28;20857;-70
2021/12/21 04:58:45;;;;;;;4.03;1.80;;;;;;;;;;5030413;28;20830;-70
2021/12/21 05:01:12;;;;;;;4.10;1.73;;;;;;;;;;5030116;28;20479;-70
2021/12/21 05:03:40;;;;;;;4.67;1.93;;;;;;;;;;5030088;28;20513;-70
2021/12/21 05:06:09;;;;;;;4.70;2.23;;;;;;;;;;5030349;28;20454;-71
2021/12/21 05:08:38;;;;;;;4.17;2.30;;;;;;;;;;5029793;28;20462;-69
2021/12/21 05:11:07;;;;;;;5.80;2.47;;;;;;;;;;5029414;28;20473;-73
2021/12/21 05:13:35;;;;;;;3.40;1.50;;;;;;;;;;5029969;28;20480;-72
2021/12/21 05:16:02;;;;;;;6.27;2.33;;;;;;;;;;5030031;28;20460;-74
2021/12/21 05:18:32;;;;;;;4.67;2.70;;;;;;;;;;5029934;28;20460;-71
2021/12/21 05:21:00;;;;;;;4.90;2.80;;;;;;;;;;5029878;28;21056;-71
2021/12/21 05:23:28;;;;;;;6.43;3.20;;;;;;;;;;5029771;28;20933;-72
2021/12/21 05:25:56;;;;;;;4.30;2.20;;;;;;;;;;5029993;28;20493;-72
2021/12/21 05:28:23;;;;;;;4.53;2.40;;;;;;;;;;5029216;28;20487;-72
2021/12/21 05:30:50;;;;;;;5.03;2.73;;;;;;;;;;5029882;28;20468;-71
2021/12/21 05:33:17;;;;;;;5.30;2.30;;;;;;;;;;5029956;28;20464;-72
2021/12/21 05:35:45;;;;;;;6.73;2.60;;;;;;;;;;5029558;28;20469;-71
2021/12/21 05:38:17;;;;;;;4.30;2.43;;;;;;;;;;5029619;28;20450;-70
2021/12/21 05:40:47;;;;;;;4.37;2.37;;;;;;;;;;5029789;28;20507;-72
2021/12/21 05:43:14;;;;;;;5.40;2.43;;;;;;;;;;5029847;28;20505;-72
2021/12/21 05:45:42;;;;;;;4.63;2.43;;;;;;;;;;5032450;28;20633;-72
2021/12/21 05:48:09;;;;;;;4.53;2.13;;;;;;;;;;5033411;28;20454;-73
2021/12/21 05:50:37;;;;;;;6.10;2.40;;;;;;;;;;5033743;28;20467;-72
2021/12/21 05:53:04;;;;;;;4.93;3.13;;;;;;;;;;5033660;28;20541;-73
2021/12/21 05:55:32;;;;;;;5.53;2.90;;;;;;;;;;5040836;28;20516;-72
2021/12/21 05:58:01;;;;;;;6.90;2.50;;;;;;;;;;5052678;28;20459;-75
2021/12/21 06:00:29;;;;;;;4.70;2.10;;;;;;;;;;5053345;28;20463;-73
2021/12/21 06:02:57;;;;;;;5.53;2.97;;;;;;;;;;5053404;28;20863;-71
2021/12/21 06:05:24;;;;;;;5.93;2.30;;;;;;;;;;5053700;28;20593;-72
2021/12/21 06:07:53;;;;;;;5.27;2.30;;;;;;;;;;5053962;28;20453;-72
2021/12/21 06:10:25;;;;;;;5.33;3.07;;;;;;;;;;5053081;28;20964;-73
2021/12/21 06:13:16;;;;;;;7.37;2.60;;;;;;;;;;5052751;28;20484;-73
2021/12/21 06:15:55;;;;;;;6.57;2.90;;;;;;;;;;5053259;28;20492;-71
2021/12/21 06:26:34;;;;;;;5.50;2.90;;;;;;;;;;5052606;28;20551;-70
2021/12/21 06:29:02;;;;;;;6.10;3.57;;;;;;;;;;5052675;28;20488;-70
2021/12/21 06:31:31;;;;;;;5.50;2.60;;;;;;;;;;5052494;28;20482;-70
2021/12/21 06:33:58;;;;;;;7.93;2.40;;;;;;;;;;5052924;28;20486;-75
2021/12/21 06:36:26;;;;;;;7.57;2.97;;;;;;;;;;5052420;28;20456;-69
2021/12/21 06:38:54;;;;;;;5.57;2.80;;;;;;;;;;5052299;28;20507;-74
2021/12/21 06:41:21;;;;;;;4.63;2.00;;;;;;;;;;5052409;28;20548;-71
2021/12/21 06:43:49;;;;;;;5.30;2.80;;;;;;;;;;5051977;28;20455;-71
2021/12/21 06:46:30;;;;;;;5.57;2.90;;;;;;;;;;5051961;28;20457;-72
2021/12/21 06:51:48;;;;;;;3.63;2.10;;;;;;;;;;5052483;28;20457;-71
2021/12/21 06:54:15;;;;;;;5.37;2.90;;;;;;;;;;5052338;28;20443;-71
2021/12/21 06:56:43;;;;;;;5.80;3.53;;;;;;;;;;5031752;28;20514;-71
2021/12/21 06:59:10;;;;;;;6.83;3.70;;;;;;;;;;5032209;28;20459;-70
2021/12/21 07:01:38;;;;;;;8.87;2.60;;;;;;;;;;5032032;28;20520;-70
2021/12/21 07:04:08;;;;;;;4.30;2.70;;;;;;;;;;5032122;28;20538;-70
2021/12/21 07:06:36;;;;;;;4.80;2.90;;;;;;;;;;5032103;28;20460;-73
2021/12/21 07:09:09;;;;;;;5.20;2.73;;;;;;;;;;5032023;28;20459;-71
2021/12/21 07:11:43;;;;;;;5.27;2.93;;;;;;;;;;5031839;28;20506;-72
2021/12/21 07:19:41;;;;;;;5.47;1.80;;;;;;;;;;5031893;28;20430;-69
2021/12/21 07:22:09;;;;;;;5.10;2.83;;;;;;;;;;5031541;28;20475;-69
2021/12/21 07:24:36;;;;;;;4.97;2.50;;;;;;;;;;5031451;28;20498;-69
2021/12/21 07:27:04;;;;;;;6.17;2.70;;;;;;;;;;5031929;28;20452;-72
2021/12/21 07:29:31;;;;;;;9.20;2.60;;;;;;;;;;5033271;28;20490;-70
2021/12/21 07:31:59;;;;;;;4.93;2.70;;;;;;;;;;5051442;28;20473;-71
2021/12/21 07:34:26;;;;;;;5.23;3.03;;;;;;;;;;5051117;28;20451;-73
2021/12/21 07:36:54;;;;;;;5.27;3.07;;;;;;;;;;5051176;28;20455;-72
2021/12/21 07:39:22;;;;;;;5.83;2.37;;;;;;;;;;5051419;28;20507;-71
2021/12/21 07:41:49;;;;;;;4.60;2.30;;;;;;;;;;5051199;28;20473;-70
2021/12/21 07:44:16;;;;;;;3.93;2.17;;;;;;;;;;5051420;28;20457;-71
2021/12/21 07:46:44;;;;;;;5.33;2.33;;;;;;;;;;5051175;28;20454;-70
2021/12/21 07:49:11;;;;;;;6.47;2.60;;;;;;;;;;5051173;28;20450;-72
2021/12/21 07:51:39;;;;;;;5.43;2.20;;;;;;;;;;5050684;28;20979;-70
2021/12/21 07:54:07;;;;;;;5.43;2.57;;;;;;;;;;5051033;28;20454;-70
2021/12/21 07:56:35;;;;;;;5.67;2.90;;;;;;;;;;5050365;28;20994;-70
2021/12/21 07:59:04;;;;;;;5.57;2.57;;;;;;;;;;5051065;28;20457;-70
2021/12/21 08:01:31;;;;;;;7.07;2.80;;;;;;;;;;5050709;28;20525;-73
2021/12/21 08:03:59;;;;;;;5.20;2.60;;;;;;;;;;5050730;28;20553;-70
2021/12/21 08:06:29;;;;;;;5.07;2.60;;;;;;;;;;5051017;28;20485;-69
2021/12/21 08:08:56;;;;;;;5.67;2.60;;;;;;;;;;5049752;28;20455;-71
2021/12/21 08:12:11;;;;;;;4.30;2.27;;;;;;;;;;5050174;28;20478;-69
2021/12/21 08:14:16;;;;;;;5.43;2.33;;;;;;;;;;5050480;28;20452;-72
2021/12/21 08:16:44;;;;;;;5.33;2.70;;;;;;;;;;5050477;28;20466;-69
2021/12/21 08:19:11;;;;;;;4.47;2.10;;;;;;;;;;5050258;28;20518;-71
2021/12/21 08:21:38;;;;;;;4.70;2.67;;;;;;;;;;5050595;28;20565;-70
2021/12/21 08:24:06;;;;;;;5.83;3.10;;;;;;;;;;5050397;28;20458;-69
2021/12/21 08:26:34;;;;;;;4.83;2.40;;;;;;;;;;5050085;28;20562;-69
2021/12/21 08:29:02;;;;;;;5.40;2.97;;;;;;;;;;5050201;28;20570;-68
2021/12/21 08:31:29;;;;;;;5.33;2.70;;;;;;;;;;5050334;28;20530;-71
2021/12/21 08:33:57;;;;;;;4.70;2.47;;;;;;;;;;5050219;28;20540;-70
2021/12/21 08:36:24;;;;;;;4.07;2.10;;;;;;;;;;5050438;28;20460;-71
2021/12/21 08:38:51;;;;;;;4.17;2.17;;;;;;;;;;5050344;28;20502;-70
2021/12/21 08:41:20;;;;;;;4.87;2.73;;;;;;;;;;5050024;28;20476;-71
2021/12/21 08:43:50;;;;;;;5.57;2.87;;;;;;;;;;5050224;28;20936;-69
2021/12/21 08:46:17;;;;;;;4.70;2.33;;;;;;;;;;5049897;28;20571;-69
2021/12/21 08:48:46;;;;;;;5.90;2.80;;;;;;;;;;5050112;28;20448;-70
2021/12/21 08:51:13;;;;;;;7.13;2.90;;;;;;;;;;5050297;28;20827;-70
2021/12/21 08:53:42;;;;;;;4.80;2.60;;;;;;;;;;5049783;28;20804;-69
2021/12/21 08:56:10;;;;;;;4.27;2.20;;;;;;;;;;5049764;28;20543;-70
2021/12/21 08:58:37;;;;;;;5.30;2.67;;;;;;;;;;5049400;28;20459;-68
2021/12/21 09:01:07;;;;;;;5.90;2.77;;;;;;;;;;5049386;28;20466;-70
2021/12/21 09:03:34;;;;;;;4.97;2.10;;;;;;;;;;5050016;28;20505;-70
2021/12/21 09:06:01;;;;;;;5.10;2.83;;;;;;;;;;5049855;28;20486;-68
2021/12/21 09:08:29;;;;;;;4.80;2.60;;;;;;;;;;5049333;28;21008;-68
2021/12/21 09:11:02;;;;;;;3.90;1.93;;;;;;;;;;5049698;28;20476;-69
2021/12/21 09:13:30;;;;;;;5.83;2.63;;;;;;;;;;5049523;28;20453;-68
2021/12/21 09:15:57;;;;;;;3.20;1.57;;;;;;;;;;5049676;28;20446;-70
2021/12/21 09:18:26;;;;;;;4.90;2.60;;;;;;;;;;5049585;28;20504;-70
2021/12/21 09:20:53;;;;;;;9.00;3.13;;;;;;;;;;5048809;28;21058;-69
2021/12/21 09:23:21;;;;;;;4.63;2.20;;;;;;;;;;5049235;28;20825;-69
2021/12/21 09:25:48;;;;;;;5.70;2.77;;;;;;;;;;5049554;28;20552;-68
2021/12/21 09:28:15;;;;;;;4.53;2.00;;;;;;;;;;5049156;28;20490;-68
2021/12/21 09:30:44;;;;;;;4.70;2.57;;;;;;;;;;5049345;28;20482;-69
2021/12/21 09:33:11;;;;;;;4.50;2.17;;;;;;;;;;5049362;28;20477;-70
2021/12/21 09:35:40;;;;;;;6.40;3.20;;;;;;;;;;5049340;28;20441;-68
2021/12/21 09:38:07;;;;;;;6.03;2.20;;;;;;;;;;5049364;28;20449;-68
2021/12/21 09:40:39;;;;;;;7.20;2.97;;;;;;;;;;5049461;28;20504;-70
2021/12/21 09:43:08;;;;;;;5.63;3.30;;;;;;;;;;5049249;28;20892;-70
2021/12/21 09:45:35;;;;;;;5.97;2.67;;;;;;;;;;5048795;28;20492;-70
2021/12/21 09:48:02;;;;;;;5.30;2.83;;;;;;;;;;5049423;28;20500;-69
2021/12/21 09:50:30;;;;;;;9.00;3.13;;;;;;;;;;5048790;28;20483;-70
2021/12/21 09:52:59;;;;;;;4.70;2.90;;;;;;;;;;5049117;28;20451;-69
2021/12/21 09:55:29;;;;;;;5.60;3.20;;;;;;;;;;5048802;28;20460;-69
2021/12/21 09:57:56;;;;;;;5.37;2.30;;;;;;;;;;5049207;28;20494;-70
2021/12/21 10:00:25;;;;;;;4.87;2.37;;;;;;;;;;5048931;28;20457;-70
2021/12/21 10:02:52;;;;;;;5.83;2.63;;;;;;;;;;5049019;28;20520;-69
2021/12/21 10:05:24;;;;;;;5.90;2.73;;;;;;;;;;5049001;28;20861;-70
2021/12/21 10:08:00;;;;;;;6.83;3.47;;;;;;;;;;5048996;28;21032;-68
2021/12/21 10:10:28;;;;;;;4.93;2.37;;;;;;;;;;5049018;28;20518;-70
2021/12/21 10:12:55;;;;;;;5.97;3.20;;;;;;;;;;5048835;28;20511;-69
2021/12/21 10:15:23;;;;;;;4.77;2.33;;;;;;;;;;5048712;28;20956;-69
2021/12/21 10:17:52;;;;;;;5.47;2.40;;;;;;;;;;5048924;28;20992;-70
2021/12/21 10:20:31;;;;;;;4.43;2.20;;;;;;;;;;5048807;28;20519;-71
2021/12/21 10:23:00;;;;;;;4.40;2.20;;;;;;;;;;5048952;28;21070;-69
2021/12/21 10:25:28;;;;;;;4.37;2.77;;;;;;;;;;5049030;28;20486;-69
2021/12/21 10:27:55;;;;;;;5.80;2.37;;;;;;;;;;5048367;28;20489;-69
2021/12/21 10:30:23;;;;;;;4.23;2.10;;;;;;;;;;5048768;28;20500;-70
2021/12/21 10:32:52;;;;;;;4.17;2.10;;;;;;;;;;5051718;28;20457;-69
2021/12/21 10:35:19;;;;;;;4.57;2.80;;;;;;;;;;5052513;28;20930;-70
2021/12/21 10:37:50;;;;;;;4.20;2.03;;;;;;;;;;5052583;28;20461;-69
2021/12/21 10:40:23;;;;;;;4.60;2.43;;;;;;;;;;5052724;28;20453;-69
2021/12/21 10:42:55;;;;;;;5.83;2.90;;;;;;;;;;5052521;28;20461;-70
2021/12/21 10:45:27;;;;;;;5.07;2.60;;;;;;;;;;5052210;28;20934;-70
2021/12/21 10:47:55;;;;;;;5.83;2.73;;;;;;;;;;5052426;28;20863;-71
2021/12/21 10:50:23;;;;;;;4.43;2.37;;;;;;;;;;5052446;28;20457;-70
2021/12/21 10:52:52;;;;;;;5.27;2.90;;;;;;;;;;5052367;28;20517;-70
2021/12/21 10:55:31;;;;;;;7.20;2.90;;;;;;;;;;5052030;28;20457;-70
2021/12/21 10:58:02;;;;;;;5.60;2.90;;;;;;;;;;5052095;28;20455;-70
2021/12/21 11:00:29;;;;;;;4.27;2.30;;;;;;;;;;5050741;28;20470;-70
2021/12/21 11:02:57;;;;;;;4.60;2.50;;;;;;;;;;5052081;28;20863;-69
2021/12/21 11:05:25;;;;;;;8.33;2.77;;;;;;;;;;5051805;28;20560;-71
2021/12/21 11:07:55;;;;;;;5.47;2.27;;;;;;;;;;5052018;28;20448;-71
2021/12/21 11:10:27;;;;;;;4.80;2.70;;;;;;;;;;5051863;28;20467;-70
2021/12/21 11:12:59;;;;;;;6.90;3.53;;;;;;;;;;5051883;28;20457;-70
2021/12/21 11:15:30;;;;;;;5.53;2.63;;;;;;;;;;5051934;28;20825;-70
2021/12/21 11:17:58;;;;;;;4.40;2.30;;;;;;;;;;5051667;28;20453;-70
2021/12/21 11:20:25;;;;;;;5.87;2.30;;;;;;;;;;5051623;28;20965;-69
2021/12/21 11:22:54;;;;;;;5.17;2.40;;;;;;;;;;5051543;28;20517;-69
2021/12/21 11:25:21;;;;;;;6.40;3.23;;;;;;;;;;5051506;28;20458;-71
2021/12/21 11:27:49;;;;;;;5.40;2.67;;;;;;;;;;5050987;28;20489;-70
2021/12/21 11:30:19;;;;;;;5.10;2.70;;;;;;;;;;5051571;28;20465;-69
2021/12/21 11:32:48;;;;;;;5.97;3.23;;;;;;;;;;5051468;28;20531;-70
2021/12/21 11:38:03;;;;;;;7.80;2.47;;;;;;;;;;5051654;28;20422;-69
2021/12/21 11:40:32;;;;;;;5.50;2.57;;;;;;;;;;5051483;28;20466;-69
2021/12/21 11:43:04;;;;;;;5.83;2.80;;;;;;;;;;5051137;28;20993;-69
2021/12/21 11:45:34;;;;;;;6.27;2.63;;;;;;;;;;5051581;28;20930;-70
2021/12/21 11:48:04;;;;;;;4.93;2.73;;;;;;;;;;5051465;28;20449;-70
2021/12/21 11:50:31;;;;;;;5.37;2.40;;;;;;;;;;5051301;28;20479;-69
2021/12/21 11:53:03;;;;;;;6.43;3.27;;;;;;;;;;5051155;28;20447;-68
2021/12/21 11:55:31;;;;;;;7.30;3.10;;;;;;;;;;5050972;28;20461;-69
2021/12/21 11:58:00;;;;;;;5.03;2.90;;;;;;;;;;5050899;28;20484;-69
2021/12/21 12:00:28;;;;;;;5.07;2.23;;;;;;;;;;5051084;28;20467;-69
2021/12/21 12:02:57;;;;;;;5.40;2.57;;;;;;;;;;5051166;28;20845;-69
2021/12/21 12:05:26;;;;;;;4.80;2.50;;;;;;;;;;5050836;28;20461;-69
2021/12/21 12:08:00;;;;;;;4.87;2.27;;;;;;;;;;5050822;28;20452;-69
2021/12/21 12:10:28;;;;;;;5.10;2.33;;;;;;;;;;5050764;28;20455;-69
2021/12/21 12:12:55;;;;;;;4.00;2.20;;;;;;;;;;5050845;28;20460;-70
2021/12/21 12:15:24;;;;;;;4.70;2.30;;;;;;;;;;5050790;28;20506;-71
2021/12/21 12:17:52;;;;;;;5.80;2.67;;;;;;;;;;5050565;28;20460;-70
2021/12/21 12:20:28;;;;;;;4.20;2.10;;;;;;;;;;5050365;28;20932;-70
2021/12/21 12:23:04;;;;;;;5.70;2.50;;;;;;;;;;5050381;28;20455;-70
2021/12/21 12:25:31;;;;;;;5.63;2.40;;;;;;;;;;5050166;28;20537;-69
2021/12/21 12:27:59;;;;;;;4.13;2.43;;;;;;;;;;5049981;28;20487;-69
2021/12/21 12:30:27;;;;;;;5.90;3.00;;;;;;;;;;5050256;28;20522;-69
2021/12/21 12:32:59;;;;;;;5.77;3.27;;;;;;;;;;5050353;28;20466;-69
2021/12/21 12:35:29;;;;;;;6.20;3.30;;;;;;;;;;5050321;28;20450;-69
2021/12/21 12:37:57;;;;;;;4.93;2.97;;;;;;;;;;5050426;28;20446;-69
2021/12/21 12:40:26;;;;;;;4.80;2.23;;;;;;;;;;5050228;28;20468;-69
2021/12/21 12:42:55;;;;;;;4.30;2.17;;;;;;;;;;5049776;28;20533;-69
2021/12/21 12:45:23;;;;;;;4.20;1.97;;;;;;;;;;5050190;28;20460;-69
2021/12/21 12:47:52;;;;;;;4.10;2.03;;;;;;;;;;5050038;28;20998;-69
2021/12/21 12:50:21;;;;;;;5.90;3.03;;;;;;;;;;5049890;28;20883;-69
2021/12/21 12:52:54;;;;;;;5.33;2.60;;;;;;;;;;5049584;28;20952;-69
2021/12/21 12:55:22;;;;;;;5.40;2.80;;;;;;;;;;5049247;28;20462;-69
2021/12/21 12:57:54;;;;;;;5.00;2.70;;;;;;;;;;5049657;28;20455;-69
2021/12/21 13:00:24;;;;;;;5.70;2.27;;;;;;;;;;5049815;28;20460;-69
2021/12/21 13:02:53;;;;;;;6.20;3.10;;;;;;;;;;5049854;28;20808;-69
2021/12/21 13:05:20;;;;;;;5.67;3.20;;;;;;;;;;5049311;28;20460;-69
2021/12/21 13:07:48;;;;;;;5.60;2.40;;;;;;;;;;5049893;28;20487;-69
2021/12/21 13:10:16;;;;;;;4.53;2.60;;;;;;;;;;5048380;28;20453;-69
2021/12/21 13:12:44;;;;;;;6.20;2.80;;;;;;;;;;5049504;28;20919;-69
2021/12/21 13:15:11;;;;;;;5.00;2.27;;;;;;;;;;5049725;28;20460;-69
2021/12/21 13:17:43;;;;;;;6.17;3.30;;;;;;;;;;5049903;28;20826;-69
2021/12/21 13:20:11;;;;;;;5.27;2.57;;;;;;;;;;5049428;28;20457;-69
2021/12/21 13:22:44;;;;;;;5.83;2.50;;;;;;;;;;5049633;28;20847;-69
2021/12/21 13:25:11;;;;;;;8.27;3.70;;;;;;;;;;5049562;28;20463;-70
2021/12/21 13:27:40;;;;;;;5.23;2.97;;;;;;;;;;5049103;28;20508;-69
2021/12/21 13:30:07;;;;;;;5.00;3.30;;;;;;;;;;5049754;28;20453;-69
2021/12/21 13:32:36;;;;;;;7.43;3.57;;;;;;;;;;5049546;28;20450;-69
2021/12/21 13:35:03;;;;;;;4.77;2.90;;;;;;;;;;5049082;28;20493;-68
2021/12/21 13:37:31;;;;;;;8.70;3.27;;;;;;;;;;5049220;28;20500;-69
2021/12/21 13:40:00;;;;;;;7.20;3.10;;;;;;;;;;5049270;28;20456;-69
2021/12/21 13:42:30;;;;;;;4.80;2.80;;;;;;;;;;5049210;28;20492;-69
2021/12/21 13:45:00;;;;;;;5.43;2.63;;;;;;;;;;5049211;28;20462;-69
2021/12/21 13:47:29;;;;;;;5.33;3.00;;;;;;;;;;5049280;28;20982;-69
2021/12/21 13:49:57;;;;;;;4.60;2.53;;;;;;;;;;5049142;28;20450;-69
2021/12/21 13:52:26;;;;;;;6.27;3.33;;;;;;;;;;5049196;28;20956;-70
2021/12/21 13:54:53;;;;;;;6.03;3.37;;;;;;;;;;5048680;28;20675;-70
2021/12/21 13:57:22;;;;;;;5.50;3.07;;;;;;;;;;5049173;28;20453;-70
2021/12/21 13:59:50;;;;;;;6.23;2.80;;;;;;;;;;5048679;28;20455;-69
2021/12/21 14:02:29;;;;;;;5.90;2.67;;;;;;;;;;5048737;28;20484;-69
2021/12/21 14:05:03;;;;;;;5.70;3.10;;;;;;;;;;5049009;28;20832;-69
2021/12/21 14:07:36;;;;;;;5.90;2.60;;;;;;;;;;5052989;28;20492;-70
2021/12/21 14:10:06;;;;;;;5.47;2.87;;;;;;;;;;5052971;28;20453;-70
2021/12/21 14:12:33;;;;;;;4.40;2.40;;;;;;;;;;5052799;28;20475;-68
2021/12/21 14:15:01;;;;;;;7.80;2.80;;;;;;;;;;5052989;28;21008;-70
2021/12/21 14:17:30;;;;;;;9.50;2.93;;;;;;;;;;5053213;28;20449;-69
2021/12/21 14:19:58;;;;;;;4.40;2.33;;;;;;;;;;5052853;28;20993;-70
2021/12/21 14:22:25;;;;;;;6.17;3.20;;;;;;;;;;5052850;28;20481;-69
2021/12/21 14:24:53;;;;;;;6.93;3.40;;;;;;;;;;5052717;28;20458;-69
2021/12/21 14:27:21;;;;;;;6.10;3.60;;;;;;;;;;5051969;28;20488;-69
2021/12/21 14:29:48;;;;;;;5.73;2.93;;;;;;;;;;5052686;28;20447;-68
2021/12/21 14:32:24;;;;;;;5.47;3.30;;;;;;;;;;5052472;28;20479;-70
2021/12/21 14:34:54;;;;;;;6.90;4.00;;;;;;;;;;5052027;28;20820;-69
2021/12/21 14:37:22;;;;;;;6.63;4.13;;;;;;;;;;5052421;28;20547;-70
2021/12/21 14:39:55;;;;;;;6.73;3.57;;;;;;;;;;5052349;28;20448;-69
2021/12/21 14:42:23;;;;;;;7.40;2.77;;;;;;;;;;5052357;28;21183;-69
2021/12/21 14:44:53;;;;;;;7.70;3.83;;;;;;;;;;5052404;28;20454;-69
2021/12/21 14:47:22;;;;;;;8.27;3.83;;;;;;;;;;5052367;28;20571;-69
2021/12/21 14:49:53;;;;;;;7.00;4.27;;;;;;;;;;5052310;28;20531;-69
2021/12/21 14:52:26;;;;;;;7.10;3.70;;;;;;;;;;5052148;28;20496;-69
2021/12/21 14:54:54;;;;;;;11.57;5.03;;;;;;;;;;5051709;28;20464;-69
2021/12/21 14:57:30;;;;;;;11.53;4.73;;;;;;;;;;5051633;28;20939;-69
2021/12/21 14:59:58;;;;;;;7.87;4.30;;;;;;;;;;5052257;28;20454;-69
2021/12/21 15:02:49;;;;;;;6.93;4.20;;;;;;;;;;5051902;28;20467;-69
2021/12/21 15:05:14;;;;;;;8.00;5.03;;;;;;;;;;5051653;28;20446;-70
2021/12/21 15:07:44;;;;;;;10.73;5.67;;;;;;;;;;5051845;28;20490;-68
2021/12/21 15:10:13;;;;;;;10.70;5.40;;;;;;;;;;5051801;28;20879;-68
2021/12/21 15:12:41;;;;;;;8.47;4.47;;;;;;;;;;5051594;28;20449;-68
2021/12/21 15:15:08;;;;;;;8.60;3.87;;;;;;;;;;5051808;28;20460;-68
2021/12/21 15:17:36;;;;;;;12.87;6.57;;;;;;;;;;5050816;28;20459;-68
2021/12/21 15:20:03;;;;;;;7.97;5.20;;;;;;;;;;5051880;28;20499;-68
2021/12/21 15:22:30;;;;;;;9.23;5.73;;;;;;;;;;5051463;28;20476;-69
2021/12/21 15:24:59;;;;;;;8.23;5.80;;;;;;;;;;5051695;28;20549;-68
2021/12/21 15:27:27;;;;;;;11.20;6.97;;;;;;;;;;5051408;28;21044;-68
2021/12/21 15:29:54;;;;;;;9.53;5.90;;;;;;;;;;5051613;28;20549;-69